Aérodrome :
LOGIN :

S'inscrire | Disclaimer

   EN    FR    IT 

 










Légende :    VFR   VFR Marginal   IFR   IFR Intensif   IFR Très Intensif
Visi : 
Plafond : 
>= 8 km
>= 3000ft
5 à 8 km
1000 à 3000 ft
1500m à 5 km
500 à 1000 ft
800 à 1500m
200 à 500 ft
< 800m
< 200 ft
Symboles :   Orages  Brouillard  Fortes neiges  Fortes précipitations  Vent > 20 kt
SIGMETs :   Divers  Orages  Givrage  Turbulence  Onde Orograph.  Cendres Volcan.







- Altitude de l'aérodrome : 313 ft
- Code IATA : LEH
- Voir les cartes d'approche


LFOH - Le Havre Octeville

DERNIER METAR :
  • 190930Z AUTO 20007KT 7000 BKN004 06/06 Q1022 BECMG SCT025

METARs EXPIRÉS :
  • 190900Z AUTO 21007KT 7000 FEW002 06/06 Q1022 NOSIG
  • 190830Z AUTO 20007KT 4500 BR OVC002 06/05 Q1022 BECMG 8000 NSW SCT025
  • 190800Z AUTO 20007KT 1700 BR OVC002 05/05 Q1021 BECMG 8000 NSW SCT025
  • 190730Z AUTO 23007KT 0450 0350 R22/0600U FG VV/// 05/05 Q1021 BECMG 8000 NSW SCT025
  • 190700Z AUTO 22006KT 0350 R22/0375N FG VV/// 05/04 Q1021 BECMG 4000 BR OVC002

TAF AMD TAF LFOH
Valide du 19 à 06h jusqu'au 20 à 06h UTC


190619Z 1906/2006 23007KT 4000 BR OVC002
TEMPO 1906/1908 0300 FG VV///
BECMG 1909/1911 8000 NSW SCT025
BECMG 1920/1922 17010KT
PROB30
TEMPO 2004/2006 3000 BR OVC002
ATIS : +33 2 35 54 64 93
Pas de NOTAMs connus pour ce terrain.
1 SIGMET publié pour la FIR Paris (LFFF) :
 
Turbulence forte
LFFF SIGMET 2 VALID 190800/191200 LFPW
LFFF PARIS FIR/UIR SEV TURB FCST WI N4715 E00130 - N4715 W00015 - N4800 W00015 - N4900 E00100 - N4830 E00230 - N4715 E00130 FL200/300 MOV E 10KT WKN=



MET'MAP, la Météo Aéronautique d'un coup d'oeil ! - Copyright ORBIFLY Décembre 2007 - Disclaimer

ORBIFLY MET'MAP TEAM :

Programmation & Développement : Alexandra Zaïnal
Conception & Développement : Baudouin d'Aumeries
Co-Programmation & Développement : Marc-Olivier Méhu
Soutien technique & logistique : Manuel Goepfert

Contact : metmap@orbifly.com




SOURCES & CREDITS :

   NOAA